createdAt,value
2023-09-09T00:00:05.915Z,20.68
2023-09-09T00:02:39.915Z,20.59
2023-09-09T00:05:08.219Z,20.44
2023-09-09T00:07:36.096Z,20.41
2023-09-09T00:10:06.152Z,20.46
2023-09-09T00:12:34.139Z,20.48
2023-09-09T00:15:05.477Z,20.63
2023-09-09T00:17:33.513Z,20.49
2023-09-09T00:20:01.403Z,20.52
2023-09-09T00:22:29.334Z,20.55
2023-09-09T00:24:57.201Z,20.57
2023-09-09T00:27:26.464Z,20.72
2023-09-09T00:29:54.415Z,20.76
2023-09-09T00:32:22.367Z,20.83
2023-09-09T00:34:50.293Z,20.79
2023-09-09T00:37:18.150Z,20.77
2023-09-09T00:39:46.048Z,20.92
2023-09-09T00:42:13.964Z,20.82
2023-09-09T00:44:43.290Z,20.87
2023-09-09T00:47:11.299Z,20.76
2023-09-09T00:49:39.335Z,20.71
2023-09-09T00:52:08.074Z,20.72
2023-09-09T00:54:36.024Z,20.69
2023-09-09T00:57:06.904Z,20.69
2023-09-09T00:59:35.507Z,20.57
2023-09-09T01:02:05.339Z,20.55
2023-09-09T01:04:33.590Z,20.55
2023-09-09T01:07:03.890Z,20.53
2023-09-09T01:09:35.139Z,20.52
2023-09-09T01:12:04.771Z,20.41
2023-09-09T01:14:32.999Z,20.34
2023-09-09T01:17:01.663Z,20.24
2023-09-09T01:19:32.553Z,20.45
2023-09-09T01:22:04.432Z,20.32
2023-09-09T01:24:33.809Z,20.38
2023-09-09T01:27:01.692Z,20.46
2023-09-09T01:29:29.620Z,20.55
2023-09-09T01:31:58.016Z,20.46
2023-09-09T01:34:27.385Z,20.49
2023-09-09T01:36:55.275Z,20.45
2023-09-09T01:39:23.203Z,20.25
2023-09-09T01:41:52.741Z,20.18
2023-09-09T01:44:20.650Z,20.31
2023-09-09T01:46:48.569Z,20.25
2023-09-09T01:49:16.744Z,20.17
2023-09-09T01:51:44.964Z,20.21
2023-09-09T01:54:13.313Z,20.17
2023-09-09T01:56:41.171Z,20.18
2023-09-09T01:59:10.561Z,20.15
2023-09-09T02:01:38.520Z,20.14
2023-09-09T02:04:06.710Z,20.21
2023-09-09T02:06:35.315Z,20.35
2023-09-09T02:09:05.140Z,20.36
2023-09-09T02:11:33.054Z,20.31
2023-09-09T02:14:00.962Z,20.24
2023-09-09T02:16:30.377Z,20.11
2023-09-09T02:18:59.792Z,20.08
2023-09-09T02:21:27.682Z,20.04
2023-09-09T02:23:55.665Z,20.01
2023-09-09T02:26:23.600Z,20.03
2023-09-09T02:28:51.617Z,20.08
2023-09-09T02:31:19.661Z,20.04
2023-09-09T02:33:49.032Z,20.00
2023-09-09T02:36:17.065Z,19.93
2023-09-09T02:38:45.006Z,19.83
2023-09-09T02:41:12.911Z,19.83
2023-09-09T02:43:40.815Z,19.74
2023-09-09T02:46:08.776Z,19.85
2023-09-09T02:48:36.945Z,19.87
2023-09-09T02:51:06.819Z,19.84
2023-09-09T02:53:35.016Z,19.85
2023-09-09T02:56:03.068Z,19.71
2023-09-09T02:58:30.996Z,19.67
2023-09-09T03:01:05.234Z,19.71
2023-09-09T03:03:34.030Z,19.70
2023-09-09T03:06:02.719Z,19.57
2023-09-09T03:08:32.156Z,19.57
2023-09-09T03:11:00.228Z,19.59
2023-09-09T03:13:28.682Z,19.73
2023-09-09T03:15:56.707Z,19.64
2023-09-09T03:18:24.726Z,19.49
2023-09-09T03:20:53.525Z,19.53
2023-09-09T03:23:21.619Z,19.52
2023-09-09T03:25:50.969Z,19.45
2023-09-09T03:28:18.816Z,19.47
2023-09-09T03:30:56.771Z,19.40
2023-09-09T03:33:28.594Z,19.49
2023-09-09T03:35:56.539Z,19.27
2023-09-09T03:38:24.784Z,19.15
2023-09-09T03:40:54.159Z,19.09
2023-09-09T03:43:22.550Z,19.15
2023-09-09T03:45:55.805Z,19.15
2023-09-09T03:48:24.383Z,19.13
2023-09-09T03:50:52.593Z,18.91
2023-09-09T03:53:20.607Z,18.84
2023-09-09T03:55:48.713Z,18.94
2023-09-09T03:58:18.173Z,18.99
2023-09-09T04:00:48.023Z,19.08
2023-09-09T04:03:16.722Z,19.20
2023-09-09T04:05:48.236Z,19.16
2023-09-09T04:08:16.235Z,19.08
2023-09-09T04:10:44.694Z,18.98
2023-09-09T04:13:12.596Z,19.01
2023-09-09T04:15:42.071Z,19.08
2023-09-09T04:18:10.091Z,19.12
2023-09-09T04:20:38.100Z,19.09
2023-09-09T04:23:06.156Z,19.02
2023-09-09T04:25:34.185Z,19.12
2023-09-09T04:28:02.221Z,19.09
2023-09-09T04:30:30.167Z,18.95
2023-09-09T04:33:00.185Z,19.01
2023-09-09T04:35:28.327Z,18.94
2023-09-09T04:37:56.232Z,18.92
2023-09-09T04:40:24.143Z,18.89
2023-09-09T04:42:52.108Z,18.88
2023-09-09T04:45:20.411Z,18.88
2023-09-09T04:47:48.612Z,18.79
2023-09-09T04:50:18.068Z,18.82
2023-09-09T04:52:46.006Z,18.79
2023-09-09T04:55:13.928Z,18.82
2023-09-09T04:57:42.381Z,18.84
2023-09-09T05:00:12.712Z,18.88
2023-09-09T05:02:41.586Z,18.95
2023-09-09T05:05:09.833Z,19.02
2023-09-09T05:07:39.335Z,18.96
2023-09-09T05:10:09.396Z,18.88
2023-09-09T05:12:38.661Z,18.84
2023-09-09T05:15:11.321Z,18.81
2023-09-09T05:17:40.078Z,18.81
2023-09-09T05:20:09.198Z,18.88
2023-09-09T05:22:38.873Z,18.89
2023-09-09T05:25:07.717Z,19.02
2023-09-09T05:27:35.659Z,19.01
2023-09-09T05:30:03.775Z,19.16
2023-09-09T05:32:32.026Z,19.15
2023-09-09T05:34:59.985Z,19.13
2023-09-09T05:37:28.529Z,19.16
2023-09-09T05:39:58.274Z,19.18
2023-09-09T05:42:27.082Z,19.40
2023-09-09T05:44:55.065Z,19.84
2023-09-09T05:47:23.000Z,20.34
2023-09-09T05:49:51.403Z,20.93
2023-09-09T05:52:19.344Z,21.19
2023-09-09T05:54:47.242Z,21.53
2023-09-09T05:57:16.536Z,21.74
2023-09-09T05:59:44.747Z,21.84
2023-09-09T06:02:14.601Z,22.39
2023-09-09T06:04:42.773Z,23.01
2023-09-09T06:07:10.892Z,23.58
2023-09-09T06:09:38.852Z,24.16
2023-09-09T06:12:07.706Z,24.78
2023-09-09T06:14:37.173Z,25.46
2023-09-09T06:17:05.832Z,26.08
2023-09-09T06:19:33.844Z,26.71
2023-09-09T06:22:01.769Z,26.98
2023-09-09T06:24:30.339Z,27.44
2023-09-09T06:26:58.646Z,28.00
2023-09-09T06:29:27.428Z,28.28
2023-09-09T06:31:57.390Z,28.53
2023-09-09T06:34:25.850Z,29.03
2023-09-09T06:36:54.427Z,29.76
2023-09-09T06:39:22.314Z,30.36
2023-09-09T06:41:53.044Z,31.01
2023-09-09T06:44:25.557Z,31.55
2023-09-09T06:46:53.439Z,31.97
2023-09-09T06:49:22.689Z,32.53
2023-09-09T06:51:50.648Z,32.71
2023-09-09T06:54:18.532Z,33.16
2023-09-09T06:56:48.061Z,33.86
2023-09-09T06:59:15.927Z,34.17
2023-09-09T07:01:44.419Z,34.61
2023-09-09T07:04:12.404Z,34.96
2023-09-09T07:06:52.211Z,35.36
2023-09-09T07:09:31.014Z,36.18
2023-09-09T07:12:00.236Z,36.44
2023-09-09T07:14:28.112Z,36.48
2023-09-09T07:16:55.974Z,36.76
2023-09-09T07:19:23.898Z,36.97
2023-09-09T07:21:53.210Z,37.07
2023-09-09T07:24:21.235Z,37.09
2023-09-09T07:26:49.478Z,37.60
2023-09-09T07:29:17.348Z,37.98
2023-09-09T07:31:45.111Z,38.32
2023-09-09T07:34:13.096Z,38.79
2023-09-09T07:36:41.083Z,39.10
2023-09-09T07:39:10.115Z,38.58
2023-09-09T07:41:38.051Z,38.97
2023-09-09T07:44:06.260Z,38.93
2023-09-09T07:46:34.282Z,39.98
2023-09-09T07:49:02.237Z,40.23
2023-09-09T07:51:30.437Z,40.77
2023-09-09T07:53:58.359Z,41.27
2023-09-09T07:56:27.669Z,41.44
2023-09-09T07:58:55.743Z,41.56
2023-09-09T08:01:23.819Z,41.47
2023-09-09T08:03:51.800Z,41.66
2023-09-09T08:06:19.776Z,41.96
2023-09-09T08:08:48.835Z,41.89
2023-09-09T08:11:18.631Z,42.58
2023-09-09T08:13:47.916Z,42.67
2023-09-09T08:16:15.926Z,42.50
2023-09-09T08:18:43.993Z,42.32
2023-09-09T08:21:14.084Z,42.26
2023-09-09T08:23:42.072Z,43.15
2023-09-09T08:26:10.715Z,43.01
2023-09-09T08:28:38.693Z,43.11
2023-09-09T08:31:08.167Z,43.49
2023-09-09T08:33:36.593Z,43.25
2023-09-09T08:36:05.311Z,43.59
2023-09-09T08:38:33.566Z,43.46
2023-09-09T08:41:06.133Z,43.76
2023-09-09T08:43:42.808Z,44.26
2023-09-09T08:46:16.105Z,43.70
2023-09-09T08:48:44.777Z,43.73
2023-09-09T08:51:15.440Z,43.73
2023-09-09T08:53:45.179Z,43.82
2023-09-09T08:56:14.270Z,43.70
2023-09-09T08:58:42.443Z,43.90
2023-09-09T09:01:11.039Z,44.00
2023-09-09T09:03:41.635Z,44.13
2023-09-09T09:06:10.961Z,43.90
2023-09-09T09:08:38.968Z,44.01
2023-09-09T09:11:08.362Z,44.03
2023-09-09T09:13:36.507Z,44.19
2023-09-09T09:16:05.186Z,43.63
2023-09-09T09:18:33.189Z,43.34
2023-09-09T09:21:09.400Z,42.46
2023-09-09T09:23:44.157Z,42.87
2023-09-09T09:26:25.008Z,43.26
2023-09-09T09:28:53.587Z,42.79
2023-09-09T09:31:22.397Z,42.30
2023-09-09T09:33:51.797Z,42.72
2023-09-09T09:36:21.652Z,42.78
2023-09-09T09:38:50.535Z,42.37
2023-09-09T09:41:19.353Z,42.27
2023-09-09T09:43:48.005Z,42.22
2023-09-09T09:46:16.632Z,42.77
2023-09-09T09:48:44.991Z,42.61
2023-09-09T09:51:13.204Z,42.97
2023-09-09T09:53:53.168Z,42.99
2023-09-09T09:56:21.554Z,42.09
2023-09-09T09:58:51.385Z,42.20
2023-09-09T10:01:19.495Z,42.07
2023-09-09T10:03:49.504Z,42.81
2023-09-09T10:06:21.388Z,42.35
2023-09-09T10:08:58.205Z,41.75
2023-09-09T10:11:29.990Z,41.90
2023-09-09T10:14:09.064Z,42.46
2023-09-09T10:16:38.710Z,42.36
2023-09-09T10:19:07.296Z,41.84
2023-09-09T10:21:42.493Z,41.95
2023-09-09T10:24:13.199Z,42.61
2023-09-09T10:26:42.206Z,42.15
2023-09-09T10:29:11.046Z,41.65
2023-09-09T10:31:39.502Z,42.00
2023-09-09T10:34:10.287Z,41.84
2023-09-09T10:36:50.890Z,40.98
2023-09-09T10:39:29.277Z,41.14
2023-09-09T10:41:58.118Z,41.04
2023-09-09T10:44:26.342Z,40.96
2023-09-09T10:46:58.674Z,41.15
2023-09-09T10:49:28.394Z,41.11
2023-09-09T10:51:57.085Z,41.23
2023-09-09T10:54:26.995Z,41.13
2023-09-09T10:56:59.316Z,40.59
2023-09-09T10:59:29.924Z,40.60
2023-09-09T11:02:11.644Z,40.55
2023-09-09T11:04:41.005Z,40.90
2023-09-09T11:07:10.710Z,40.82
2023-09-09T11:09:39.334Z,41.17
2023-09-09T11:12:15.844Z,41.27
2023-09-09T11:14:47.534Z,41.51
2023-09-09T11:17:15.801Z,41.49
2023-09-09T11:19:45.150Z,40.63
2023-09-09T11:22:13.610Z,40.53
2023-09-09T11:24:42.338Z,40.39
2023-09-09T11:27:11.752Z,40.59
2023-09-09T11:29:41.079Z,40.87
2023-09-09T11:32:11.395Z,40.86
2023-09-09T11:34:39.607Z,40.77
2023-09-09T11:37:07.416Z,40.09
2023-09-09T11:39:40.641Z,39.21
2023-09-09T11:42:08.540Z,38.72
2023-09-09T11:44:40.632Z,38.59
2023-09-09T11:47:10.334Z,38.77
2023-09-09T11:49:39.745Z,38.56
2023-09-09T11:52:07.933Z,39.13
2023-09-09T11:54:36.296Z,38.90
2023-09-09T11:57:08.336Z,38.97
2023-09-09T11:59:45.696Z,39.45
2023-09-09T12:02:22.248Z,39.18
2023-09-09T12:05:00.668Z,39.45
2023-09-09T12:07:32.633Z,39.61
2023-09-09T12:10:01.928Z,39.17
2023-09-09T12:12:30.497Z,39.34
2023-09-09T12:15:00.229Z,39.40
2023-09-09T12:17:30.392Z,39.82
2023-09-09T12:19:59.231Z,38.73
2023-09-09T12:22:36.807Z,38.65
2023-09-09T12:25:07.308Z,38.35
2023-09-09T12:27:43.090Z,37.55
2023-09-09T12:30:32.459Z,38.24
2023-09-09T12:33:07.683Z,38.59
2023-09-09T12:35:36.634Z,38.94
2023-09-09T12:38:05.403Z,39.17
2023-09-09T12:40:49.157Z,38.94
2023-09-09T12:43:18.366Z,38.96
2023-09-09T12:45:50.893Z,38.11
2023-09-09T12:48:21.159Z,38.52
2023-09-09T12:50:50.593Z,38.48
2023-09-09T12:53:18.861Z,37.94
2023-09-09T12:55:46.915Z,37.64
2023-09-09T12:58:15.028Z,37.12
2023-09-09T13:00:43.126Z,37.22
2023-09-09T13:03:11.141Z,36.95
2023-09-09T13:05:40.358Z,36.95
2023-09-09T13:08:08.263Z,36.96
2023-09-09T13:10:36.157Z,36.72
2023-09-09T13:13:04.292Z,36.65
2023-09-09T13:15:32.311Z,36.00
2023-09-09T13:18:00.310Z,35.98
2023-09-09T13:20:28.255Z,35.94
2023-09-09T13:22:57.815Z,35.77
2023-09-09T13:25:25.826Z,35.72
2023-09-09T13:27:53.969Z,35.90
2023-09-09T13:30:21.877Z,35.64
2023-09-09T13:32:49.823Z,35.40
2023-09-09T13:35:18.193Z,35.16
2023-09-09T13:37:46.032Z,35.19
2023-09-09T13:40:16.063Z,34.85
2023-09-09T13:42:45.070Z,34.64
2023-09-09T13:45:13.495Z,34.44
2023-09-09T13:47:41.579Z,33.98
2023-09-09T13:50:10.574Z,34.07
2023-09-09T13:52:38.661Z,33.55
2023-09-09T13:55:07.222Z,33.30
2023-09-09T13:57:36.480Z,33.42
2023-09-09T14:00:05.990Z,33.29
2023-09-09T14:02:34.022Z,33.21
2023-09-09T14:05:02.083Z,33.27
2023-09-09T14:07:29.974Z,33.02
2023-09-09T14:09:57.849Z,32.96
2023-09-09T14:12:25.738Z,32.84
2023-09-09T14:14:55.034Z,32.79
2023-09-09T14:17:22.964Z,32.60
2023-09-09T14:19:50.899Z,32.45
2023-09-09T14:22:18.824Z,32.50
2023-09-09T14:24:46.808Z,32.33
2023-09-09T14:27:14.864Z,32.23
2023-09-09T14:29:44.395Z,32.23
2023-09-09T14:32:13.693Z,32.16
2023-09-09T14:34:41.583Z,32.02
2023-09-09T14:37:09.521Z,31.72
2023-09-09T14:39:37.762Z,31.77
2023-09-09T14:42:06.464Z,31.42
2023-09-09T14:44:34.653Z,31.38
2023-09-09T14:47:02.590Z,31.32
2023-09-09T14:49:32.441Z,31.25
2023-09-09T14:52:00.579Z,31.38
2023-09-09T14:54:28.516Z,31.35
2023-09-09T14:56:56.490Z,31.34
2023-09-09T14:59:24.717Z,31.35
2023-09-09T15:01:52.843Z,31.31
2023-09-09T15:04:21.399Z,31.31
2023-09-09T15:06:50.857Z,31.22
2023-09-09T15:09:18.798Z,31.18
2023-09-09T15:11:46.738Z,31.16
2023-09-09T15:14:14.662Z,31.19
2023-09-09T15:16:50.303Z,31.16
2023-09-09T15:19:19.054Z,30.99
2023-09-09T15:21:47.333Z,31.07
2023-09-09T15:24:16.970Z,31.10
2023-09-09T15:26:44.917Z,31.11
2023-09-09T15:29:12.980Z,31.04
2023-09-09T15:31:41.137Z,31.01
2023-09-09T15:34:09.088Z,30.91
2023-09-09T15:36:37.090Z,30.77
2023-09-09T15:39:05.474Z,30.74
2023-09-09T15:41:34.797Z,30.70
2023-09-09T15:44:03.520Z,30.74
2023-09-09T15:46:31.635Z,30.74
2023-09-09T15:48:59.794Z,30.64
2023-09-09T15:51:28.188Z,30.63
2023-09-09T15:53:56.166Z,30.57
2023-09-09T15:56:25.689Z,30.52
2023-09-09T15:58:55.316Z,30.54
2023-09-09T16:01:23.319Z,30.37
2023-09-09T16:03:51.387Z,30.36
2023-09-09T16:06:19.384Z,30.24
2023-09-09T16:08:47.518Z,30.29
2023-09-09T16:11:15.552Z,29.92
2023-09-09T16:13:43.462Z,29.82
2023-09-09T16:16:13.148Z,29.92
2023-09-09T16:18:42.961Z,29.90
2023-09-09T16:21:10.977Z,29.92
2023-09-09T16:23:38.956Z,29.81
2023-09-09T16:26:07.092Z,29.68
2023-09-09T16:28:35.036Z,29.75
2023-09-09T16:31:05.504Z,29.61
2023-09-09T16:33:34.996Z,29.55
2023-09-09T16:36:04.552Z,29.42
2023-09-09T16:38:32.794Z,29.31
2023-09-09T16:41:00.675Z,29.21
2023-09-09T16:43:28.789Z,29.13
2023-09-09T16:45:56.870Z,29.00
2023-09-09T16:48:24.871Z,28.97
2023-09-09T16:50:54.326Z,28.92
2023-09-09T16:53:22.443Z,28.86
2023-09-09T16:55:50.519Z,28.79
2023-09-09T16:58:18.620Z,28.67
2023-09-09T17:00:49.662Z,28.57
2023-09-09T17:03:18.223Z,28.52
2023-09-09T17:05:46.572Z,28.43
2023-09-09T17:08:15.846Z,28.38
2023-09-09T17:10:43.998Z,28.32
2023-09-09T17:13:11.915Z,28.25
2023-09-09T17:15:41.996Z,28.18
2023-09-09T17:18:10.410Z,28.13
2023-09-09T17:20:38.487Z,27.98
2023-09-09T17:23:06.464Z,27.87
2023-09-09T17:25:36.433Z,27.80
2023-09-09T17:28:05.646Z,27.74
2023-09-09T17:30:33.661Z,27.62
2023-09-09T17:33:01.752Z,27.57
2023-09-09T17:35:29.962Z,27.47
2023-09-09T17:37:57.932Z,27.46
2023-09-09T17:40:26.019Z,27.40
2023-09-09T17:42:55.468Z,27.31
2023-09-09T17:45:23.437Z,27.23
2023-09-09T17:47:51.359Z,27.19
2023-09-09T17:50:19.434Z,27.16
2023-09-09T17:52:47.442Z,27.00
2023-09-09T17:55:15.720Z,26.80
2023-09-09T17:57:43.590Z,26.68
2023-09-09T18:00:13.565Z,26.56
2023-09-09T18:02:43.223Z,26.44
2023-09-09T18:05:11.513Z,26.31
2023-09-09T18:07:39.673Z,26.28
2023-09-09T18:10:11.250Z,26.28
2023-09-09T18:12:39.970Z,26.18
2023-09-09T18:15:08.040Z,26.08
2023-09-09T18:17:37.416Z,25.96
2023-09-09T18:20:06.204Z,25.86
2023-09-09T18:22:34.077Z,25.77
2023-09-09T18:25:02.565Z,25.70
2023-09-09T18:27:30.527Z,25.63
2023-09-09T18:30:00.669Z,25.58
2023-09-09T18:32:28.663Z,25.63
2023-09-09T18:34:58.110Z,25.67
2023-09-09T18:37:26.083Z,25.65
2023-09-09T18:39:54.075Z,25.58
2023-09-09T18:42:21.979Z,25.60
2023-09-09T18:44:50.008Z,25.62
2023-09-09T18:47:18.062Z,25.58
2023-09-09T18:49:46.095Z,25.40
2023-09-09T18:52:15.439Z,25.28
2023-09-09T18:54:44.800Z,25.16
2023-09-09T18:57:13.490Z,25.05
2023-09-09T18:59:41.214Z,24.94
2023-09-09T19:02:09.230Z,24.91
2023-09-09T19:04:37.233Z,24.85
2023-09-09T19:07:05.759Z,24.77
2023-09-09T19:09:35.003Z,24.71
2023-09-09T19:12:03.004Z,24.65
2023-09-09T19:14:30.916Z,24.58
2023-09-09T19:16:58.867Z,24.58
2023-09-09T19:19:26.809Z,24.53
2023-09-09T19:21:54.944Z,24.54
2023-09-09T19:24:22.924Z,24.44
2023-09-09T19:26:52.226Z,24.43
2023-09-09T19:29:20.136Z,24.46
2023-09-09T19:31:48.143Z,24.40
2023-09-09T19:34:16.140Z,24.38
2023-09-09T19:36:45.486Z,24.44
2023-09-09T19:39:14.858Z,24.43
2023-09-09T19:41:45.230Z,24.33
2023-09-09T19:44:14.497Z,24.37
2023-09-09T19:46:42.418Z,24.27
2023-09-09T19:49:10.431Z,24.23
2023-09-09T19:51:38.293Z,24.24
2023-09-09T19:54:06.446Z,24.27
2023-09-09T19:56:34.787Z,24.27
2023-09-09T19:59:02.827Z,24.23
2023-09-09T20:01:32.175Z,24.17
2023-09-09T20:04:00.397Z,24.19
2023-09-09T20:06:28.427Z,24.19
2023-09-09T20:08:56.393Z,24.03
2023-09-09T20:11:24.422Z,23.99
2023-09-09T20:13:52.424Z,23.89
2023-09-09T20:16:20.520Z,23.92
2023-09-09T20:18:49.850Z,23.90
2023-09-09T20:21:17.731Z,23.80
2023-09-09T20:23:45.674Z,23.72
2023-09-09T20:26:13.617Z,23.68
2023-09-09T20:28:41.945Z,23.61
2023-09-09T20:31:10.222Z,23.51
2023-09-09T20:33:38.167Z,23.44
2023-09-09T20:36:08.657Z,23.49
2023-09-09T20:38:37.215Z,23.51
2023-09-09T20:41:05.393Z,23.39
2023-09-09T20:43:33.598Z,23.42
2023-09-09T20:46:09.590Z,23.42
2023-09-09T20:48:37.844Z,23.55
2023-09-09T20:51:07.440Z,23.42
2023-09-09T20:53:35.540Z,23.39
2023-09-09T20:56:09.794Z,23.44
2023-09-09T20:58:38.347Z,23.42
2023-09-09T21:01:07.066Z,23.41
2023-09-09T21:03:35.107Z,23.37
2023-09-09T21:06:03.556Z,23.27
2023-09-09T21:08:33.055Z,23.32
2023-09-09T21:11:01.080Z,23.35
2023-09-09T21:13:29.133Z,23.34
2023-09-09T21:15:57.144Z,23.32
2023-09-09T21:18:25.044Z,23.25
2023-09-09T21:20:52.964Z,23.14
2023-09-09T21:23:20.896Z,23.04
2023-09-09T21:25:50.178Z,22.88
2023-09-09T21:28:18.292Z,22.77
2023-09-09T21:30:46.675Z,22.70
2023-09-09T21:33:14.588Z,22.60
2023-09-09T21:35:42.652Z,22.63
2023-09-09T21:38:10.580Z,22.67
2023-09-09T21:40:38.513Z,22.66
2023-09-09T21:43:07.808Z,22.64
2023-09-09T21:45:35.772Z,22.52
2023-09-09T21:48:03.792Z,22.52
2023-09-09T21:50:31.723Z,22.59
2023-09-09T21:52:59.695Z,22.55
2023-09-09T21:55:27.689Z,22.47
2023-09-09T21:57:55.644Z,22.40
2023-09-09T22:00:25.086Z,22.37
2023-09-09T22:02:53.504Z,22.43
2023-09-09T22:05:21.845Z,22.33
2023-09-09T22:07:49.892Z,22.23
2023-09-09T22:10:18.288Z,22.23
2023-09-09T22:12:46.733Z,22.32
2023-09-09T22:15:14.678Z,22.35
2023-09-09T22:17:44.003Z,22.40
2023-09-09T22:20:13.194Z,22.39
2023-09-09T22:22:42.003Z,22.23
2023-09-09T22:25:10.741Z,22.15
2023-09-09T22:27:38.760Z,22.02
2023-09-09T22:30:07.846Z,22.04
2023-09-09T22:32:35.925Z,22.12
2023-09-09T22:35:07.127Z,22.12
2023-09-09T22:37:36.199Z,22.19
2023-09-09T22:40:05.183Z,22.33
2023-09-09T22:42:33.169Z,22.30
2023-09-09T22:45:01.072Z,22.30
2023-09-09T22:47:29.016Z,22.29
2023-09-09T22:49:57.172Z,22.53
2023-09-09T22:52:26.542Z,22.59
2023-09-09T22:54:54.615Z,22.73
2023-09-09T22:57:22.751Z,22.91
2023-09-09T22:59:50.978Z,23.04
2023-09-09T23:02:18.905Z,22.73
2023-09-09T23:04:51.130Z,22.32
2023-09-09T23:07:19.313Z,22.02
2023-09-09T23:09:53.774Z,21.96
2023-09-09T23:12:21.882Z,22.01
2023-09-09T23:14:49.780Z,22.06
2023-09-09T23:17:17.728Z,22.09
2023-09-09T23:19:45.718Z,22.02
2023-09-09T23:22:13.741Z,22.04
2023-09-09T23:24:43.320Z,22.04
2023-09-09T23:27:12.619Z,22.10
2023-09-09T23:29:40.502Z,22.20
2023-09-09T23:32:08.688Z,22.02
2023-09-09T23:34:38.840Z,21.95
2023-09-09T23:37:06.981Z,21.81
2023-09-09T23:39:34.926Z,21.75
2023-09-09T23:42:03.978Z,21.88
2023-09-09T23:44:33.214Z,21.84
2023-09-09T23:47:01.188Z,21.84
2023-09-09T23:49:29.119Z,21.79
2023-09-09T23:51:57.009Z,21.74
2023-09-09T23:54:24.883Z,21.62
2023-09-09T23:56:52.839Z,21.58
2023-09-09T23:59:20.788Z,21.53
